Time;durP1;ratioP1;P1;durP2;ratioP2;P2;SDS_P1;SDS_P2;PMS_P1;PMS_P2;Temp;Humidity;BMP_temperature;BMP_pressure;BME280_temperature;BME280_humidity;BME280_pressure;Samples;Min_cycle;Max_cycle;Signal;HPM_P1;HPM_P2
2022/12/26 00:01:38;;;;;;;1.92;1.55;;;7.90;99.90;;;;;;5006239;28;20487;-82
2022/12/26 00:04:04;;;;;;;3.05;1.40;;;7.90;99.90;;;;;;5022839;28;20053;-81
2022/12/26 00:06:31;;;;;;;3.47;1.75;;;8.00;99.90;;;;;;5026216;28;20057;-82
2022/12/26 00:08:58;;;;;;;2.47;1.30;;;8.00;99.90;;;;;;5004974;28;20101;-82
2022/12/26 00:11:25;;;;;;;2.28;1.73;;;8.00;99.90;;;;;;5005365;28;20026;-81
2022/12/26 00:14:00;;;;;;;2.08;1.40;;;8.00;99.90;;;;;;5023929;28;20048;-82
2022/12/26 00:16:27;;;;;;;1.55;1.23;;;8.10;99.90;;;;;;5023379;28;20034;-82
2022/12/26 00:18:53;;;;;;;3.55;1.50;;;8.00;99.90;;;;;;5022107;28;20187;-83
2022/12/26 00:21:20;;;;;;;2.28;1.30;;;8.00;99.90;;;;;;5014946;28;20025;-83
2022/12/26 00:23:46;;;;;;;1.42;1.33;;;8.00;99.90;;;;;;5033537;28;20029;-82
2022/12/26 00:26:17;;;;;;;2.05;1.65;;;7.90;99.90;;;;;;5016715;28;20022;-82
2022/12/26 00:28:44;;;;;;;1.55;1.40;;;7.90;99.90;;;;;;5033430;28;20060;-83
2022/12/26 00:31:16;;;;;;;3.08;1.45;;;7.90;99.90;;;;;;5032473;28;20086;-80
2022/12/26 00:33:42;;;;;;;1.88;1.38;;;7.90;99.90;;;;;;5016332;28;20056;-83
2022/12/26 00:36:11;;;;;;;2.22;1.42;;;7.90;99.90;;;;;;5014340;28;20038;-83
2022/12/26 00:38:38;;;;;;;1.77;1.60;;;8.00;99.90;;;;;;5032736;28;20018;-84
2022/12/26 00:41:05;;;;;;;2.08;1.63;;;8.00;99.90;;;;;;5035847;28;20048;-84
2022/12/26 00:43:31;;;;;;;1.80;1.27;;;8.00;99.90;;;;;;5035868;28;20021;-82
2022/12/26 00:45:57;;;;;;;1.30;1.20;;;7.90;99.90;;;;;;5034466;28;20060;-82
2022/12/26 00:48:23;;;;;;;2.35;1.40;;;7.90;99.90;;;;;;5005059;28;20037;-83
2022/12/26 00:50:49;;;;;;;1.88;1.25;;;7.80;99.90;;;;;;5022994;28;20030;-83
2022/12/26 00:53:15;;;;;;;1.98;1.30;;;7.80;99.90;;;;;;5022938;28;20062;-83
2022/12/26 00:55:41;;;;;;;3.05;1.15;;;7.70;99.90;;;;;;5022242;28;20109;-83
2022/12/26 00:58:07;;;;;;;1.67;1.40;;;7.70;99.90;;;;;;5022206;28;20434;-82
2022/12/26 01:00:32;;;;;;;1.35;1.00;;;7.70;99.90;;;;;;5023147;28;20018;-84
2022/12/26 01:02:59;;;;;;;1.95;0.98;;;7.70;99.90;;;;;;5024142;28;20366;-85
2022/12/26 01:05:25;;;;;;;1.40;1.05;;;7.80;99.90;;;;;;5008318;28;20072;-83
2022/12/26 01:07:51;;;;;;;1.63;1.13;;;7.80;99.90;;;;;;5020585;28;20029;-82
2022/12/26 01:10:17;;;;;;;1.15;1.00;;;7.80;99.90;;;;;;5003193;28;20034;-84
2022/12/26 01:12:43;;;;;;;1.35;1.10;;;7.70;99.90;;;;;;5020383;28;20022;-83
2022/12/26 01:15:09;;;;;;;1.20;1.10;;;7.70;99.90;;;;;;5020319;28;20053;-83
2022/12/26 01:17:34;;;;;;;1.45;0.90;;;7.60;99.90;;;;;;5001860;28;20448;-82
2022/12/26 01:20:00;;;;;;;1.42;0.98;;;7.50;99.90;;;;;;5020424;28;20026;-83
2022/12/26 01:22:26;;;;;;;2.45;1.23;;;7.50;99.90;;;;;;5021000;28;20109;-83
2022/12/26 01:24:53;;;;;;;2.00;1.30;;;7.50;99.90;;;;;;5024568;28;20032;-83
2022/12/26 01:27:19;;;;;;;4.57;1.00;;;7.40;99.90;;;;;;5012450;28;20022;-83
2022/12/26 01:29:46;;;;;;;1.58;0.95;;;7.40;99.90;;;;;;5033161;28;20097;-83
2022/12/26 01:32:11;;;;;;;1.92;0.95;;;7.30;99.90;;;;;;5016364;28;20110;-84
2022/12/26 01:34:37;;;;;;;1.33;1.23;;;7.30;99.90;;;;;;5008836;28;20086;-83
2022/12/26 01:37:03;;;;;;;1.08;1.08;;;7.30;99.90;;;;;;5002596;28;20404;-83
2022/12/26 01:39:30;;;;;;;0.85;0.85;;;7.30;99.90;;;;;;5019419;28;20112;-83
2022/12/26 01:41:56;;;;;;;0.98;0.90;;;7.30;99.90;;;;;;5019283;28;20030;-82
2022/12/26 01:44:55;;;;;;;1.00;0.70;;;7.20;99.90;;;;;;5002379;28;20010;-82
2022/12/26 01:47:24;;;;;;;0.85;0.85;;;7.20;99.90;;;;;;5003219;28;20044;-83
2022/12/26 01:49:53;;;;;;;1.05;0.80;;;7.10;99.90;;;;;;5002371;28;20030;-80
2022/12/26 01:52:41;;;;;;;0.90;0.90;;;7.10;99.90;;;;;;5002198;28;20344;-83
2022/12/26 01:55:10;;;;;;;1.02;0.70;;;7.10;99.90;;;;;;5020933;28;20048;-81
2022/12/26 01:58:01;;;;;;;1.50;0.98;;;7.10;99.90;;;;;;5021969;28;20022;-81
2022/12/26 02:00:28;;;;;;;0.65;0.60;;;7.10;99.90;;;;;;5020327;28;20058;-83
2022/12/26 02:05:38;;;;;;;0.70;0.57;;;7.00;99.90;;;;;;5023139;28;20495;-81
2022/12/26 02:08:17;;;;;;;1.23;0.70;;;7.00;99.90;;;;;;5003649;28;20014;-81
2022/12/26 02:14:09;;;;;;;0.90;0.90;;;7.00;99.90;;;;;;5020132;28;20037;-83
2022/12/26 02:17:29;;;;;;;1.73;0.80;;;6.90;99.90;;;;;;5001973;28;20567;-81
2022/12/26 02:20:21;;;;;;;1.95;0.88;;;6.90;99.90;;;;;;5018665;28;20065;-82
2022/12/26 02:23:24;;;;;;;0.80;0.80;;;6.90;99.90;;;;;;5002394;28;20452;-82
2022/12/26 02:26:05;;;;;;;1.20;0.70;;;6.90;99.90;;;;;;5003667;28;20448;-83
2022/12/26 02:28:43;;;;;;;0.82;0.77;;;6.90;99.90;;;;;;5003011;28;20050;-82
2022/12/26 02:31:51;;;;;;;0.68;0.60;;;6.80;99.90;;;;;;5021172;28;20136;-82
2022/12/26 02:34:48;;;;;;;1.08;0.60;;;6.80;99.90;;;;;;5020141;28;20495;-82
2022/12/26 02:37:40;;;;;;;1.23;0.88;;;6.80;99.90;;;;;;5003481;28;20048;-83
2022/12/26 02:40:09;;;;;;;0.63;0.50;;;6.80;99.90;;;;;;4995999;28;20026;-83
2022/12/26 02:42:46;;;;;;;1.77;0.43;;;6.80;99.90;;;;;;5003760;28;20080;-82
2022/12/26 02:48:42;;;;;;;0.60;0.60;;;6.80;99.90;;;;;;5022042;28;20041;-83
2022/12/26 03:15:03;;;;;;;0.50;0.50;;;7.20;99.90;;;;;;5030429;28;20033;-82
2022/12/26 03:17:42;;;;;;;0.90;0.90;;;7.20;99.90;;;;;;5030323;28;20081;-83
2022/12/26 03:20:15;;;;;;;1.27;1.00;;;7.20;99.90;;;;;;5032303;28;20034;-84
2022/12/26 03:22:55;;;;;;;1.25;0.85;;;7.30;99.90;;;;;;5039906;28;20034;-83
2022/12/26 03:28:39;;;;;;;0.88;0.70;;;7.40;99.50;;;;;;5039995;28;20032;-84
2022/12/26 03:31:08;;;;;;;1.35;0.85;;;7.40;99.30;;;;;;5039881;28;20093;-84
2022/12/26 03:36:48;;;;;;;0.80;0.80;;;7.50;99.00;;;;;;5040109;28;20147;-85
2022/12/26 04:41:34;;;;;;;0.75;0.60;;;7.30;98.70;;;;;;5022244;28;20045;-83
2022/12/26 04:46:33;;;;;;;4.10;3.08;;;7.30;98.70;;;;;;5018852;28;20073;-82
2022/12/26 04:51:49;;;;;;;2.42;2.05;;;7.20;98.70;;;;;;5018973;28;20094;-83
2022/12/26 04:54:14;;;;;;;1.77;1.67;;;7.20;98.80;;;;;;5018767;28;20042;-82
2022/12/26 04:56:40;;;;;;;1.70;1.60;;;7.10;98.80;;;;;;5002598;28;20370;-82
2022/12/26 04:59:06;;;;;;;1.50;1.40;;;7.10;98.80;;;;;;5003781;28;20456;-81
2022/12/26 05:09:54;;;;;;;1.30;1.20;;;7.10;98.70;;;;;;5022442;28;20036;-81
2022/12/26 05:12:20;;;;;;;0.82;0.82;;;7.10;98.90;;;;;;5022391;28;20093;-83
2022/12/26 05:14:45;;;;;;;1.65;1.55;;;7.10;99.30;;;;;;5023248;28;20021;-83
2022/12/26 05:31:00;;;;;;;1.42;1.33;;;7.20;98.60;;;;;;5021289;28;20092;-82
2022/12/26 05:36:12;;;;;;;1.95;1.60;;;7.10;98.60;;;;;;5036590;28;20037;-83
2022/12/26 05:38:38;;;;;;;1.48;1.38;;;7.10;98.60;;;;;;5020124;28;20032;-82
2022/12/26 05:41:04;;;;;;;0.82;0.82;;;7.10;98.70;;;;;;5002192;28;20069;-82
2022/12/26 05:43:30;;;;;;;0.82;0.82;;;7.10;98.70;;;;;;5021377;28;20026;-81
2022/12/26 05:45:55;;;;;;;1.35;1.17;;;7.10;98.60;;;;;;5020236;28;20030;-82
2022/12/26 05:48:21;;;;;;;1.42;1.10;;;7.10;98.60;;;;;;5021621;28;20064;-81
2022/12/26 05:50:47;;;;;;;1.95;1.60;;;7.10;98.60;;;;;;5021126;28;20030;-82
2022/12/26 05:53:13;;;;;;;1.63;1.52;;;7.10;98.60;;;;;;5003604;28;20072;-81
2022/12/26 05:55:38;;;;;;;4.57;2.97;;;7.10;98.70;;;;;;5019876;28;20057;-83
2022/12/26 05:58:04;;;;;;;5.93;2.45;;;7.00;98.70;;;;;;5020340;28;20037;-82
2022/12/26 06:00:30;;;;;;;5.07;2.70;;;7.10;98.70;;;;;;5020199;28;20120;-82
2022/12/26 06:02:58;;;;;;;6.85;4.30;;;7.00;98.70;;;;;;5021177;28;20113;-82
2022/12/26 06:05:24;;;;;;;6.07;3.72;;;7.00;98.90;;;;;;5020132;28;20045;-82
2022/12/26 06:07:50;;;;;;;6.47;3.72;;;7.00;99.10;;;;;;5021097;28;20030;-81
2022/12/26 06:10:15;;;;;;;10.60;5.25;;;7.00;98.90;;;;;;5003217;28;20026;-82
2022/12/26 06:12:41;;;;;;;4.13;2.90;;;7.00;98.90;;;;;;5021277;28;20030;-81
2022/12/26 06:15:07;;;;;;;4.47;3.28;;;7.00;98.90;;;;;;5019805;28;20030;-83
2022/12/26 06:17:33;;;;;;;4.72;3.70;;;7.00;98.90;;;;;;5020202;28;20029;-82
2022/12/26 06:19:59;;;;;;;4.88;3.08;;;7.00;98.90;;;;;;5001646;28;20030;-82
2022/12/26 06:22:27;;;;;;;3.72;2.30;;;7.00;99.10;;;;;;5020001;28;20030;-82
2022/12/26 06:24:52;;;;;;;3.17;2.20;;;7.10;99.10;;;;;;5019266;28;20535;-82
2022/12/26 06:27:18;;;;;;;2.95;2.03;;;7.10;99.10;;;;;;5019930;28;20092;-82
2022/12/26 06:29:44;;;;;;;4.68;2.40;;;7.10;99.10;;;;;;5020524;28;20049;-82
2022/12/26 06:32:10;;;;;;;4.13;2.00;;;7.20;99.10;;;;;;5020840;28;20034;-82
2022/12/26 06:34:36;;;;;;;2.55;1.60;;;7.20;99.10;;;;;;5021009;28;20095;-83
2022/12/26 06:37:02;;;;;;;1.80;1.45;;;7.30;99.10;;;;;;5021057;28;20037;-82
2022/12/26 06:39:27;;;;;;;3.15;1.80;;;7.30;99.00;;;;;;5020996;28;20037;-82
2022/12/26 06:41:53;;;;;;;1.80;1.35;;;7.40;99.10;;;;;;5022284;28;20025;-82
2022/12/26 06:44:19;;;;;;;2.47;1.23;;;7.40;99.00;;;;;;5020497;28;20477;-82
2022/12/26 06:46:45;;;;;;;1.42;1.30;;;7.50;99.00;;;;;;5020876;28;20056;-82
2022/12/26 06:49:11;;;;;;;2.65;0.93;;;7.50;98.90;;;;;;5003302;28;20054;-83
2022/12/26 06:51:36;;;;;;;0.95;0.93;;;7.50;98.80;;;;;;5004345;28;20034;-82
2022/12/26 06:54:02;;;;;;;0.93;0.93;;;7.60;98.70;;;;;;5020378;28;20022;-83
2022/12/26 06:56:33;;;;;;;1.45;0.95;;;7.60;98.50;;;;;;5021123;28;20026;-82
2022/12/26 06:59:01;;;;;;;0.88;0.88;;;7.60;98.40;;;;;;5004236;28;20029;-83
2022/12/26 07:01:29;;;;;;;2.35;1.10;;;7.60;98.40;;;;;;5022895;28;20041;-84
2022/12/26 07:03:56;;;;;;;1.20;0.95;;;7.60;98.30;;;;;;5003372;28;20080;-85
2022/12/26 07:06:25;;;;;;;1.23;0.80;;;7.60;98.30;;;;;;5025899;28;20018;-83
2022/12/26 07:08:53;;;;;;;1.38;1.05;;;7.50;98.30;;;;;;5025951;28;20021;-84
2022/12/26 07:11:23;;;;;;;1.48;1.10;;;7.50;98.40;;;;;;5035654;28;20037;-85
2022/12/26 07:13:48;;;;;;;0.90;0.88;;;7.50;98.40;;;;;;5027307;28;20030;-84
2022/12/26 07:16:14;;;;;;;0.60;0.60;;;7.40;98.40;;;;;;5019483;28;20030;-82
2022/12/26 07:18:40;;;;;;;0.82;0.82;;;7.40;98.50;;;;;;5002717;28;20049;-82
2022/12/26 07:21:08;;;;;;;0.82;0.82;;;7.40;98.50;;;;;;5005725;28;20385;-84
2022/12/26 07:23:33;;;;;;;1.67;0.60;;;7.50;98.50;;;;;;5023536;28;20547;-82
2022/12/26 07:25:59;;;;;;;1.10;0.70;;;7.50;98.40;;;;;;5020849;28;20060;-83
2022/12/26 07:28:25;;;;;;;0.50;0.50;;;7.50;98.30;;;;;;5002501;28;20026;-83
2022/12/26 07:30:51;;;;;;;0.93;0.80;;;7.50;98.20;;;;;;5034091;28;20090;-83
2022/12/26 07:33:22;;;;;;;2.28;0.88;;;7.60;98.20;;;;;;5019699;28;20026;-83
2022/12/26 07:35:48;;;;;;;2.45;1.00;;;7.60;98.10;;;;;;5019258;28;20038;-81
2022/12/26 07:38:14;;;;;;;1.23;0.95;;;7.70;97.90;;;;;;5018729;28;20018;-83
2022/12/26 07:40:40;;;;;;;1.13;0.73;;;7.70;97.70;;;;;;5018365;28;20041;-85
2022/12/26 07:43:06;;;;;;;0.85;0.80;;;7.70;97.50;;;;;;5028287;28;20026;-82
2022/12/26 07:45:32;;;;;;;2.58;0.73;;;7.80;97.10;;;;;;5003318;28;20014;-82
2022/12/26 07:47:58;;;;;;;0.88;0.80;;;7.80;96.80;;;;;;5020727;28;20074;-81
2022/12/26 07:50:25;;;;;;;0.80;0.77;;;7.80;96.60;;;;;;5002239;28;20069;-82
2022/12/26 07:52:51;;;;;;;1.40;0.70;;;7.90;96.30;;;;;;5020993;28;20026;-81
2022/12/26 07:55:17;;;;;;;0.95;0.77;;;7.90;96.20;;;;;;5022052;28;20084;-82
2022/12/26 07:57:42;;;;;;;0.70;0.70;;;7.90;96.00;;;;;;5029384;28;20095;-85
2022/12/26 08:00:09;;;;;;;1.08;0.80;;;7.90;96.20;;;;;;5010322;28;20033;-84
2022/12/26 08:02:34;;;;;;;1.52;0.88;;;8.00;95.70;;;;;;5025844;28;20034;-83
2022/12/26 08:05:00;;;;;;;0.95;0.70;;;8.10;95.60;;;;;;5024112;28;20036;-84
2022/12/26 08:07:26;;;;;;;1.00;0.90;;;8.10;95.50;;;;;;5025770;28;20022;-84
2022/12/26 08:09:52;;;;;;;1.42;1.25;;;8.20;95.50;;;;;;5030660;28;20022;-86
2022/12/26 08:12:20;;;;;;;1.35;0.95;;;8.20;95.30;;;;;;5030459;28;20060;-84
2022/12/26 08:14:46;;;;;;;4.18;3.05;;;8.30;95.10;;;;;;5030599;28;20030;-84
2022/12/26 08:17:12;;;;;;;4.47;3.38;;;8.30;95.10;;;;;;5031068;28;20033;-84
2022/12/26 08:19:40;;;;;;;2.13;1.83;;;8.30;94.90;;;;;;5013923;28;20038;-83
2022/12/26 08:22:06;;;;;;;3.83;2.17;;;8.30;94.80;;;;;;5014919;28;20026;-85
2022/12/26 08:24:32;;;;;;;2.88;2.03;;;8.30;94.90;;;;;;5028784;28;20132;-83
2022/12/26 08:26:58;;;;;;;2.40;1.70;;;8.30;94.90;;;;;;5033985;28;20077;-82
2022/12/26 08:29:23;;;;;;;1.60;1.50;;;8.30;94.90;;;;;;5034013;28;20052;-82
2022/12/26 08:31:49;;;;;;;1.27;1.17;;;8.30;94.90;;;;;;5015489;28;20021;-83
2022/12/26 08:34:15;;;;;;;0.93;0.88;;;8.40;95.20;;;;;;5017856;28;20034;-84
2022/12/26 08:36:40;;;;;;;1.40;0.85;;;8.50;94.90;;;;;;5030145;28;20032;-82
2022/12/26 08:39:06;;;;;;;1.73;1.23;;;8.50;94.80;;;;;;5031615;28;20033;-83
2022/12/26 08:41:32;;;;;;;1.02;1.00;;;8.60;94.70;;;;;;5028067;28;20047;-83
2022/12/26 08:44:01;;;;;;;1.15;1.05;;;8.70;94.70;;;;;;5033476;28;20026;-83
2022/12/26 08:46:27;;;;;;;1.17;0.80;;;8.80;94.50;;;;;;5017621;28;20037;-83
2022/12/26 08:48:52;;;;;;;1.77;1.10;;;8.90;94.40;;;;;;5032115;28;20033;-83
2022/12/26 08:51:24;;;;;;;1.40;1.00;;;9.00;94.40;;;;;;5031773;28;20029;-83
2022/12/26 08:53:52;;;;;;;1.30;1.00;;;9.10;94.30;;;;;;5013587;28;20026;-83
2022/12/26 08:56:21;;;;;;;1.63;1.00;;;9.30;94.10;;;;;;5014338;28;20192;-82
2022/12/26 08:58:47;;;;;;;0.98;0.88;;;9.40;93.90;;;;;;5034985;28;20192;-83
2022/12/26 09:01:27;;;;;;;2.47;1.20;;;9.50;93.70;;;;;;5037222;28;20022;-83
2022/12/26 09:03:59;;;;;;;1.25;0.95;;;9.70;93.60;;;;;;5033911;28;20026;-84
2022/12/26 09:06:25;;;;;;;1.45;1.35;;;9.80;93.30;;;;;;5034959;28;20049;-83
2022/12/26 09:08:51;;;;;;;1.55;1.45;;;9.90;93.10;;;;;;5037769;28;20038;-84
2022/12/26 09:11:20;;;;;;;1.30;1.20;;;10.00;93.00;;;;;;5038010;28;20140;-83
2022/12/26 09:13:47;;;;;;;1.67;1.58;;;10.10;93.00;;;;;;5038219;28;20010;-84
2022/12/26 09:16:16;;;;;;;2.20;2.00;;;10.30;92.80;;;;;;5037559;28;20053;-84
2022/12/26 09:18:43;;;;;;;2.60;2.40;;;10.50;92.60;;;;;;5018470;28;20021;-83
2022/12/26 09:21:10;;;;;;;2.92;2.33;;;10.70;92.20;;;;;;5030715;28;20064;-83
2022/12/26 09:23:36;;;;;;;4.70;3.10;;;10.80;91.90;;;;;;5025394;28;20030;-83
2022/12/26 09:26:07;;;;;;;6.60;4.20;;;11.00;91.70;;;;;;5023190;28;20069;-83
2022/12/26 09:28:34;;;;;;;4.05;3.10;;;11.20;91.40;;;;;;5030879;28;20030;-81
2022/12/26 09:31:01;;;;;;;2.20;2.00;;;11.40;91.10;;;;;;5031763;28;20049;-83
2022/12/26 09:33:29;;;;;;;2.58;1.75;;;11.60;90.60;;;;;;5020911;28;20129;-84
2022/12/26 09:35:54;;;;;;;1.48;1.25;;;11.70;90.30;;;;;;5023892;28;20026;-84
2022/12/26 09:38:20;;;;;;;2.55;1.50;;;11.80;89.70;;;;;;5024497;28;20022;-83
2022/12/26 09:41:05;;;;;;;1.58;1.20;;;12.00;88.30;;;;;;5031501;28;20057;-84
2022/12/26 09:44:04;;;;;;;2.72;1.20;;;12.10;87.10;;;;;;5017104;28;20034;-86
2022/12/26 09:46:33;;;;;;;2.22;1.20;;;12.10;85.10;;;;;;5033981;28;20080;-85
2022/12/26 09:49:16;;;;;;;2.20;1.80;;;12.10;84.80;;;;;;5034576;28;20038;-84
2022/12/26 09:51:48;;;;;;;2.70;2.00;;;12.10;84.60;;;;;;5029673;28;20025;-84
2022/12/26 09:54:32;;;;;;;1.30;1.15;;;12.00;84.30;;;;;;5029362;28;20101;-84
2022/12/26 09:57:01;;;;;;;3.75;1.65;;;12.00;83.60;;;;;;5031245;28;20124;-84
2022/12/26 09:59:29;;;;;;;1.65;0.90;;;12.00;83.20;;;;;;5028782;28;20048;-84
2022/12/26 10:01:56;;;;;;;3.35;1.10;;;12.00;83.20;;;;;;5032117;28;20041;-84
2022/12/26 10:04:25;;;;;;;2.10;1.00;;;12.00;82.80;;;;;;5012511;28;20033;-84
2022/12/26 10:07:21;;;;;;;1.35;0.95;;;12.10;82.50;;;;;;5023155;28;20048;-84
2022/12/26 10:10:23;;;;;;;1.35;0.98;;;12.20;82.20;;;;;;5021336;28;20030;-84
2022/12/26 10:12:59;;;;;;;1.42;1.10;;;12.40;81.40;;;;;;5021272;28;20056;-85
2022/12/26 10:15:53;;;;;;;1.83;1.30;;;12.50;80.70;;;;;;5020270;28;20096;-84
2022/12/26 10:18:42;;;;;;;1.50;1.00;;;12.60;79.80;;;;;;5002815;28;20096;-84
2022/12/26 10:21:46;;;;;;;0.90;0.90;;;12.70;79.30;;;;;;5020548;28;20080;-83
2022/12/26 10:24:20;;;;;;;1.40;1.08;;;12.70;79.20;;;;;;4940609;29;20058;-83
2022/12/26 10:26:50;;;;;;;0.70;0.52;;;12.80;78.70;;;;;;4927348;29;20038;-84
2022/12/26 10:29:23;;;;;;;0.95;0.90;;;12.90;78.30;;;;;;4982790;28;20485;-84
2022/12/26 10:31:48;;;;;;;0.93;0.80;;;13.00;77.70;;;;;;5019916;28;20061;-83
2022/12/26 10:34:40;;;;;;;1.23;1.10;;;13.10;77.30;;;;;;5020038;28;20088;-84
2022/12/26 10:37:37;;;;;;;3.90;1.48;;;13.20;76.80;;;;;;5016153;28;20125;-82
2022/12/26 10:40:38;;;;;;;1.20;1.10;;;13.40;75.70;;;;;;5012435;28;20025;-83
2022/12/26 10:43:23;;;;;;;1.67;0.80;;;13.40;75.50;;;;;;4999914;28;20041;-83
2022/12/26 10:46:17;;;;;;;2.15;1.50;;;13.50;74.90;;;;;;5002342;28;20512;-82
2022/12/26 10:48:43;;;;;;;1.65;0.80;;;13.30;74.50;;;;;;5021473;28;20109;-82
2022/12/26 10:51:11;;;;;;;2.25;0.75;;;13.20;74.90;;;;;;5020545;28;20027;-85
2022/12/26 10:53:42;;;;;;;1.42;0.80;;;13.10;75.40;;;;;;5020220;28;20343;-83
2022/12/26 10:56:08;;;;;;;1.33;1.02;;;13.00;75.90;;;;;;5023252;28;20109;-83
2022/12/26 10:58:36;;;;;;;1.00;0.90;;;13.00;76.40;;;;;;5019552;28;20058;-84
2022/12/26 11:01:27;;;;;;;0.60;0.60;;;13.00;76.60;;;;;;5001809;28;20030;-83
2022/12/26 11:03:57;;;;;;;0.93;0.90;;;13.10;76.40;;;;;;5020511;28;20177;-85
2022/12/26 11:06:35;;;;;;;1.35;1.02;;;13.20;76.30;;;;;;5002991;28;20014;-84
2022/12/26 11:09:01;;;;;;;1.90;0.80;;;13.30;76.30;;;;;;5020337;28;20388;-83
2022/12/26 11:11:44;;;;;;;0.57;0.57;;;13.30;76.20;;;;;;5003945;28;20070;-83
2022/12/26 11:14:32;;;;;;;2.15;0.80;;;13.30;76.00;;;;;;5021119;28;20461;-84
2022/12/26 11:17:07;;;;;;;1.33;0.90;;;13.30;75.90;;;;;;4988198;28;20049;-84
2022/12/26 11:19:42;;;;;;;0.85;0.80;;;13.40;75.70;;;;;;5019729;28;20030;-84
2022/12/26 11:22:27;;;;;;;1.42;1.27;;;13.50;75.80;;;;;;5018266;28;20032;-83
2022/12/26 11:25:39;;;;;;;2.83;2.03;;;13.60;75.50;;;;;;5035382;28;20014;-86
2022/12/26 11:28:23;;;;;;;2.95;1.95;;;13.70;75.20;;;;;;5008180;28;20038;-83
2022/12/26 11:30:49;;;;;;;1.85;1.58;;;13.70;75.00;;;;;;5020171;28;20034;-84
2022/12/26 11:33:19;;;;;;;3.10;1.48;;;13.70;75.10;;;;;;5019516;28;20030;-84
2022/12/26 11:36:08;;;;;;;2.08;1.30;;;13.70;75.10;;;;;;5002258;28;20025;-82
2022/12/26 11:39:04;;;;;;;2.63;1.40;;;13.70;75.00;;;;;;4990496;28;20034;-82
2022/12/26 11:41:38;;;;;;;2.20;1.10;;;13.80;75.10;;;;;;4995574;28;20091;-83
2022/12/26 11:44:13;;;;;;;1.27;1.08;;;13.80;74.80;;;;;;4989471;28;20030;-83
2022/12/26 11:46:44;;;;;;;1.92;1.10;;;13.80;74.90;;;;;;5004763;28;20044;-84
2022/12/26 11:49:25;;;;;;;3.40;1.40;;;13.90;75.00;;;;;;4987690;28;20038;-84
2022/12/26 11:51:52;;;;;;;1.95;1.20;;;13.90;74.60;;;;;;5004226;28;20026;-84
2022/12/26 11:54:35;;;;;;;2.40;1.30;;;14.00;74.40;;;;;;5002656;28;20033;-83
2022/12/26 11:57:33;;;;;;;1.35;1.20;;;14.10;74.30;;;;;;4984207;28;20094;-84
2022/12/26 12:00:16;;;;;;;2.42;1.02;;;14.10;74.10;;;;;;4952600;28;20520;-84
2022/12/26 12:02:42;;;;;;;1.20;0.90;;;14.10;74.00;;;;;;4984054;28;20018;-83
2022/12/26 12:05:43;;;;;;;0.88;0.80;;;14.20;73.90;;;;;;5001311;28;20045;-84
2022/12/26 12:08:20;;;;;;;1.15;1.02;;;14.10;74.00;;;;;;5014905;28;20022;-83
2022/12/26 12:11:05;;;;;;;1.88;1.08;;;14.10;74.80;;;;;;5003259;28;20022;-83
2022/12/26 12:17:05;;;;;;;1.38;1.10;;;14.10;77.30;;;;;;5144409;22;20214;-83
2022/12/26 12:20:08;;;;;;;1.85;1.40;;;14.00;78.70;;;;;;5041199;28;20068;-83
2022/12/26 12:23:19;;;;;;;2.70;1.20;;;13.90;79.30;;;;;;5040766;28;20523;-83
2022/12/26 12:25:52;;;;;;;4.95;1.45;;;13.70;80.60;;;;;;5041805;28;20021;-83
2022/12/26 12:28:24;;;;;;;2.72;1.55;;;13.50;83.70;;;;;;5042499;28;20021;-83
2022/12/26 12:30:55;;;;;;;1.63;1.30;;;13.20;86.40;;;;;;5043231;28;20034;-84
2022/12/26 12:33:30;;;;;;;2.03;1.45;;;13.00;90.40;;;;;;5044011;28;20104;-83
2022/12/26 12:36:34;;;;;;;2.88;1.20;;;12.60;91.70;;;;;;5044573;28;20116;-85
2022/12/26 12:39:20;;;;;;;3.60;2.50;;;12.30;93.10;;;;;;4936637;29;20020;-83
2022/12/26 12:42:08;;;;;;;2.28;1.52;;;12.00;94.60;;;;;;5005010;28;20061;-83
2022/12/26 12:45:10;;;;;;;3.35;1.90;;;11.70;96.60;;;;;;5031659;28;20010;-82
2022/12/26 12:47:50;;;;;;;3.42;2.05;;;11.50;98.50;;;;;;5020571;28;20049;-84
2022/12/26 12:50:33;;;;;;;2.75;1.70;;;11.30;99.60;;;;;;5019264;28;20037;-82
2022/12/26 12:53:17;;;;;;;2.47;1.73;;;11.20;99.90;;;;;;5028704;28;20073;-86
2022/12/26 12:56:08;;;;;;;4.95;2.35;;;11.10;99.90;;;;;;5029456;28;20139;-82
2022/12/26 12:58:57;;;;;;;4.22;1.90;;;11.00;99.90;;;;;;5034295;28;20021;-85
2022/12/26 13:01:36;;;;;;;2.90;2.30;;;11.00;99.90;;;;;;5020006;28;20037;-84
2022/12/26 13:04:22;;;;;;;4.47;2.42;;;10.90;99.90;;;;;;5036188;28;20018;-84
2022/12/26 13:06:53;;;;;;;6.50;2.85;;;10.90;99.90;;;;;;5019465;28;20132;-84
2022/12/26 13:09:23;;;;;;;5.22;2.83;;;10.80;99.90;;;;;;5042574;28;20005;-83
2022/12/26 13:11:49;;;;;;;5.20;2.88;;;10.70;99.90;;;;;;5033398;28;20014;-83
2022/12/26 13:14:20;;;;;;;3.67;2.55;;;10.70;99.90;;;;;;5034467;28;20018;-81
2022/12/26 13:16:54;;;;;;;3.30;2.67;;;10.70;99.90;;;;;;5034779;28;20034;-84
2022/12/26 13:19:26;;;;;;;6.28;3.10;;;10.60;99.90;;;;;;5035926;28;20025;-84
2022/12/26 13:21:56;;;;;;;4.45;3.42;;;10.60;99.90;;;;;;5033191;28;20022;-83
2022/12/26 13:24:38;;;;;;;8.02;3.22;;;10.50;99.90;;;;;;5023493;28;20038;-83
2022/12/26 13:27:27;;;;;;;9.95;4.13;;;10.50;99.90;;;;;;5024349;28;20036;-83
2022/12/26 13:29:54;;;;;;;7.57;3.83;;;10.50;99.90;;;;;;5026114;28;20030;-85
2022/12/26 13:32:26;;;;;;;6.93;3.25;;;10.40;99.90;;;;;;5027232;28;20590;-83
2022/12/26 13:34:56;;;;;;;5.45;3.47;;;10.30;99.90;;;;;;5028994;28;20037;-84
2022/12/26 13:37:36;;;;;;;6.57;3.78;;;10.20;99.90;;;;;;5039536;28;20056;-84
2022/12/26 13:40:19;;;;;;;6.38;3.53;;;10.10;99.90;;;;;;5051224;28;20031;-83
2022/12/26 13:45:50;;;;;;;5.43;3.42;;;10.00;99.90;;;;;;5047857;28;20089;-85
2022/12/26 13:48:16;;;;;;;6.63;3.38;;;10.00;99.90;;;;;;5044734;28;20033;-84
2022/12/26 13:50:47;;;;;;;4.10;2.90;;;10.00;99.90;;;;;;5043523;28;20029;-83
2022/12/26 13:53:25;;;;;;;4.78;3.05;;;10.00;99.90;;;;;;5041328;28;20025;-83
2022/12/26 13:55:59;;;;;;;4.45;3.25;;;9.90;99.90;;;;;;5022451;28;20044;-83
2022/12/26 13:59:02;;;;;;;7.18;3.22;;;9.90;99.90;;;;;;5040137;28;20040;-84
2022/12/26 14:01:42;;;;;;;10.18;3.85;;;9.90;99.90;;;;;;5040262;28;20033;-83
2022/12/26 14:04:45;;;;;;;8.80;4.35;;;9.90;99.90;;;;;;5021267;28;20032;-83
2022/12/26 14:07:23;;;;;;;;;;;9.90;99.90;;;;;;5038279;28;20042;-82
2022/12/26 14:09:55;;;;;;;5.22;3.15;;;9.90;99.90;;;;;;5037560;28;19956;-83
2022/12/26 14:12:24;;;;;;;4.45;2.75;;;9.90;99.90;;;;;;5022220;28;20349;-84
2022/12/26 14:14:55;;;;;;;5.53;3.22;;;9.90;99.90;;;;;;5023635;28;20064;-83
2022/12/26 14:17:36;;;;;;;4.10;3.13;;;9.80;99.90;;;;;;5021275;28;20041;-83
2022/12/26 14:20:12;;;;;;;5.70;2.80;;;9.80;99.90;;;;;;5022218;28;20010;-83
2022/12/26 14:23:11;;;;;;;4.63;2.80;;;9.80;99.90;;;;;;5022029;28;20061;-82
2022/12/26 14:26:14;;;;;;;4.15;2.63;;;9.70;99.90;;;;;;5021302;28;20026;-84
2022/12/26 14:28:43;;;;;;;3.40;2.70;;;9.70;99.90;;;;;;5019922;28;20030;-82
2022/12/26 14:31:38;;;;;;;4.78;3.30;;;9.70;99.90;;;;;;5020267;28;20026;-86
2022/12/26 14:34:11;;;;;;;5.45;4.40;;;9.70;99.90;;;;;;5022045;28;20029;-84
2022/12/26 14:37:04;;;;;;;9.55;5.72;;;9.60;99.90;;;;;;5023629;28;20469;-83
2022/12/26 14:39:53;;;;;;;4.90;3.47;;;9.60;99.90;;;;;;5052514;28;20033;-83
2022/12/26 14:45:28;;;;;;;5.00;4.50;;;9.50;99.90;;;;;;5056120;28;20055;-83
2022/12/26 14:47:54;;;;;;;7.55;4.38;;;9.50;99.90;;;;;;5056563;28;20032;-83
2022/12/26 14:50:43;;;;;;;5.30;3.47;;;9.50;99.90;;;;;;5039135;28;20155;-82
2022/12/26 14:53:32;;;;;;;7.50;4.88;;;9.50;99.90;;;;;;5056199;28;20192;-84
2022/12/26 14:56:02;;;;;;;4.80;4.18;;;9.40;99.90;;;;;;5047853;28;20085;-83
2022/12/26 14:58:37;;;;;;;7.43;3.90;;;9.40;99.90;;;;;;5041678;28;20033;-83
2022/12/26 15:01:09;;;;;;;6.18;3.78;;;9.40;99.90;;;;;;5024879;28;20022;-83
2022/12/26 15:04:02;;;;;;;5.57;4.20;;;9.40;99.90;;;;;;5022916;28;20116;-84
2022/12/26 15:06:37;;;;;;;5.90;3.05;;;9.40;99.90;;;;;;5023015;28;20052;-82
2022/12/26 15:09:34;;;;;;;7.00;3.40;;;9.30;99.90;;;;;;5028857;28;20085;-84
2022/12/26 15:12:45;;;;;;;4.35;2.85;;;9.30;99.90;;;;;;5020167;28;20022;-83
2022/12/26 15:15:36;;;;;;;4.82;2.35;;;9.30;99.90;;;;;;5019672;28;20030;-84
2022/12/26 15:18:27;;;;;;;4.80;3.03;;;9.30;99.90;;;;;;5038926;28;20060;-84
2022/12/26 15:21:27;;;;;;;4.32;2.90;;;9.30;99.90;;;;;;5022575;28;20098;-83
2022/12/26 15:24:19;;;;;;;5.82;2.30;;;9.20;99.90;;;;;;5023461;28;20029;-85
2022/12/26 15:27:12;;;;;;;4.85;2.42;;;9.20;99.90;;;;;;5022432;28;20120;-84
2022/12/26 15:29:46;;;;;;;;;;;9.20;99.90;;;;;;5022204;28;20026;-83
2022/12/26 15:36:21;;;;;;;3.67;2.20;;;9.20;99.90;;;;;;5008679;28;20056;-83
2022/12/26 15:39:34;;;;;;;4.65;2.47;;;9.20;99.90;;;;;;5006605;28;20045;-83
2022/12/26 15:42:43;;;;;;;7.90;4.47;;;9.20;99.90;;;;;;5023530;28;20022;-84
2022/12/26 15:45:56;;;;;;;4.75;2.67;;;9.10;99.90;;;;;;5005201;28;20146;-83
2022/12/26 15:49:15;;;;;;;4.05;2.33;;;9.20;99.90;;;;;;4989054;28;20039;-83
2022/12/26 15:52:56;;;;;;;2.63;2.08;;;9.10;99.90;;;;;;5006457;28;20030;-83
2022/12/26 15:56:28;;;;;;;2.58;1.90;;;9.10;99.90;;;;;;4999837;28;20057;-86
2022/12/26 15:59:51;;;;;;;2.92;2.10;;;9.10;99.90;;;;;;4941129;29;20096;-84